Orbital elements of COSMOS 2251 DEB
| Launched | 15 June 1993 |
| Flight ended | – |
| Launch site | Plesetsk Missile and Space Complex, Russia |
| Owner | Commonwealth of Independent States (former USSR) |
| NORAD ID | 34965 |
| Date fetched |
Epoch osculation |
Inc. [°] |
Ecc. | RA asc node [hr] |
Arg Peri. [°] |
Mean anom [°] |
Mean motion [rev/day] |
Abs. mag |
| Date fetched |
Epoch osculation |
Inc. [°] |
Ecc. | RA asc node [hr] |
Arg Peri. [°] |
Mean anom [°] |
Mean motion [rev/day] |
Abs. mag |
| 2026 May 03 17:57 | 2026 Apr 30 00:34:55 | 74.0518 | 0.00263 | 15.3001 | 319.6365 | 40.2843 | 14.49046 | – |
| 2026 May 02 17:57 | 2026 Apr 30 00:34:55 | 74.0518 | 0.00263 | 15.3001 | 319.6365 | 40.2843 | 14.49046 | – |
| 2026 May 01 17:56 | 2026 Apr 30 00:34:55 | 74.0518 | 0.00263 | 15.3001 | 319.6365 | 40.2843 | 14.49046 | – |
| 2026 Apr 30 17:56 | 2026 Apr 30 00:34:55 | 74.0518 | 0.00263 | 15.3001 | 319.6365 | 40.2843 | 14.49046 | – |
| 2026 Apr 29 17:57 | 2026 Apr 22 08:39:41 | 74.0514 | 0.00259 | 16.2571 | 335.7656 | 40.2843 | 14.49046 | – |
| 2026 Apr 28 17:56 | 2026 Apr 22 08:39:41 | 74.0514 | 0.00259 | 16.2571 | 335.7656 | 40.2843 | 14.49046 | – |
| 2026 Apr 27 17:58 | 2026 Apr 22 08:39:41 | 74.0514 | 0.00259 | 16.2571 | 335.7656 | 40.2843 | 14.49046 | – |
| 2026 Apr 26 17:58 | 2026 Apr 22 08:39:41 | 74.0514 | 0.00259 | 16.2571 | 335.7656 | 40.2843 | 14.49046 | – |
| 2026 Apr 25 17:58 | 2026 Apr 22 08:39:41 | 74.0514 | 0.00259 | 16.2571 | 335.7656 | 40.2843 | 14.49046 | – |
| 2026 Apr 24 17:59 | 2026 Apr 22 08:39:41 | 74.0514 | 0.00259 | 16.2571 | 335.7656 | 40.2843 | 14.49046 | – |
| 2026 Apr 23 17:57 | 2026 Apr 19 02:47:05 | 74.0504 | 0.00258 | 16.6623 | 342.6792 | 40.2843 | 14.49046 | – |
| 2026 Apr 22 17:57 | 2026 Apr 19 02:47:05 | 74.0504 | 0.00258 | 16.6623 | 342.6792 | 40.2843 | 14.49046 | – |
| 2026 Apr 21 17:57 | 2026 Apr 19 02:47:05 | 74.0504 | 0.00258 | 16.6623 | 342.6792 | 40.2843 | 14.49046 | – |
| 2026 Apr 20 17:57 | 2026 Apr 19 02:47:05 | 74.0504 | 0.00258 | 16.6623 | 342.6792 | 40.2843 | 14.49046 | – |
| 2026 Apr 19 17:58 | 2026 Apr 19 02:47:05 | 74.0504 | 0.00258 | 16.6623 | 342.6792 | 40.2843 | 14.49046 | – |
| 2026 Apr 18 17:56 | 2026 Apr 12 10:03:36 | 74.0501 | 0.00255 | 17.4986 | 356.9220 | 40.2843 | 14.49046 | – |
| 2026 Apr 16 17:57 | 2026 Apr 12 10:03:36 | 74.0501 | 0.00255 | 17.4986 | 356.9220 | 40.2843 | 14.49046 | – |
| 2026 Apr 14 17:57 | 2026 Apr 12 10:03:36 | 74.0501 | 0.00255 | 17.4986 | 356.9220 | 40.2843 | 14.49046 | – |
| 2026 Apr 13 17:57 | 2026 Apr 12 10:03:36 | 74.0501 | 0.00255 | 17.4986 | 356.9220 | 40.2843 | 14.49046 | – |
| 2026 Apr 12 17:57 | 2026 Apr 06 21:30:10 | 74.0499 | 0.00254 | 18.1884 | 8.8785 | 40.2843 | 14.49046 | – |
| 2026 Apr 11 17:57 | 2026 Apr 06 21:30:10 | 74.0499 | 0.00254 | 18.1884 | 8.8785 | 40.2843 | 14.49046 | – |
| 2026 Apr 10 17:58 | 2026 Apr 06 21:30:10 | 74.0499 | 0.00254 | 18.1884 | 8.8785 | 40.2843 | 14.49046 | – |
| 2026 Apr 09 18:01 | 2026 Apr 06 21:30:10 | 74.0499 | 0.00254 | 18.1884 | 8.8785 | 40.2843 | 14.49046 | – |
| 2026 Apr 08 17:57 | 2026 Apr 06 21:30:10 | 74.0499 | 0.00254 | 18.1884 | 8.8785 | 40.2843 | 14.49046 | – |
| 2026 Apr 07 17:57 | 2026 Apr 02 04:49:41 | 74.0500 | 0.00252 | 18.7747 | 18.9126 | 40.2843 | 14.49046 | – |
| 2026 Apr 06 17:57 | 2026 Apr 02 04:49:41 | 74.0500 | 0.00252 | 18.7747 | 18.9126 | 40.2843 | 14.49046 | – |